R. M. Thorstenson — KGCJ — position and weather

sailwx.info

Track history (hours):
 
Tides and Currents Weather Stations Pressure Air Temp Water Temp Dewpoint Dewpoint Depression Visibility Wind Speed Wind Dir Waves Ship Positions

R. M. Thorstenson

Owner: Icicle Vessel Holding, Inc., Seattle, WA. More information available from US FCC via Universal Licensing System and Coast Guard Vessel Documentation Center.

Last reported at 2016-Jun-09 23:06 UTC. Time now 2016-Jul-30 05:22 UTC.
Position N 51°25' W 128°02'.
Warning: this ship's position is 50 days out of date.

Type: Fishing. MMSI: 366577000.

Date/timePositionNaut miles runAvg speedWind from/ knotsBaromVisibWave heightAir tempDewpointWater temp
2016-Jun-09 23:06N 51°25' W 128°02'5 9.2
2016-Jun-09 22:33N 51°21' W 127°57'1010.1
2016-Jun-09 21:33N 51°11' W 127°50'1110.4
2016-Jun-09 20:27N 51°03' W 127°39'1011.1
2016-Jun-09 19:34N 50°56' W 127°27'1111.3
2016-Jun-09 18:34N 50°50' W 127°12'1211.8
2016-Jun-09 17:33N 50°43' W 126°57'6310.4
2016-Jun-09 11:33N 50°20' W 125°25'1111.1
2016-Jun-09 10:34N 50°09' W 125°21'1211.5
2016-Jun-09 09:33N 49°59' W 125°12'4 4.5
2016-Jun-09 08:33N 49°56' W 125°08'4 3.6
2016-Jun-09 07:33N 49°53' W 125°05'2 2.0
2016-Jun-09 06:33N 49°54' W 125°05'3 2.9
2016-Jun-09 05:33N 49°52' W 125°02'1110.6
2016-Jun-09 04:33N 50°00' W 125°13'8 7.8
2016-Jun-09 03:33N 49°55' W 125°04'1010.4
2016-Jun-09 02:33N 49°49' W 124°51'1111.1
2016-Jun-09 01:33N 49°42' W 124°38'1110.7
2016-Jun-09 00:33N 49°35' W 124°25'1111.1
2016-Jun-08 23:33N 49°30' W 124°10'1511.2
2016-Jun-08 22:11N 49°20' W 123°52'711.1
2016-Jun-08 21:33N 49°16' W 123°43'1010.4
2016-Jun-08 20:33N 49°09' W 123°31'1110.7
2016-Jun-08 19:33N 49°02' W 123°18'1010.0
2016-Jun-08 18:33N 48°56' W 123°06'10 9.6
2016-Jun-08 17:33N 48°50' W 122°55'9 9.0
2016-Jun-08 16:33N 48°44' W 122°45'9 9.1
2016-Jun-08 15:33N 48°35' W 122°45'1010.1
2016-Jun-08 14:33N 48°24' W 122°44'1110.5
2016-Jun-08 13:31N 48°14' W 122°48'9 8.8
2016-Jun-08 12:30N 48°07' W 122°39'1010.4
2016-Jun-08 11:33N 47°58' W 122°34'1010.4
2016-Jun-08 10:33N 47°49' W 122°27'1010.5
2016-Jun-08 09:33N 47°38' W 122°27'2 2.2
2016-Jun-08 08:32N 47°37' W 122°24'0 0.0
2016-Jun-08 07:33N 47°37' W 122°24'0 0.1
2016-Jun-08 06:30N 47°37' W 122°24'0 0.1
2016-Jun-08 05:31N 47°37' W 122°24'0 0.1
2016-Jun-08 04:31N 47°37' W 122°24'2 1.8
2016-Jun-08 03:33N 47°36' W 122°25'2 2.3
2016-Jun-08 02:33N 47°38' W 122°23'0 0.0
2016-Jun-08 01:33N 47°38' W 122°23'0 0.0
2016-Jun-08 00:33N 47°38' W 122°23'0 0.0
2016-Jun-07 23:31N 47°38' W 122°23'0 0.0
2016-Jun-07 22:31N 47°38' W 122°23'0 0.0
2016-Jun-07 21:32N 47°38' W 122°23'0 0.0
2016-Jun-07 20:33N 47°38' W 122°23'0 0.0
2016-Jun-07 19:33N 47°38' W 122°23'0 0.0
2016-Jun-07 18:31N 47°38' W 122°23'0 0.0
2016-Jun-07 17:32N 47°38' W 122°23'0 0.0
2016-Jun-07 16:33N 47°38' W 122°23'0 0.0
2016-Jun-07 15:33N 47°38' W 122°23'0 0.0
2016-Jun-07 14:33N 47°38' W 122°23'0 0.0
2016-Jun-07 13:31N 47°38' W 122°23'0 0.0
2016-Jun-07 12:32N 47°38' W 122°23'0 0.0
2016-Jun-07 11:33N 47°38' W 122°23'0 0.0
2016-Jun-07 10:33N 47°38' W 122°23'0 0.0
2016-Jun-07 09:33N 47°38' W 122°23'0 0.0
2016-Jun-07 08:31N 47°38' W 122°23'0 0.0
2016-Jun-07 07:32N 47°38' W 122°23'0 0.0
2016-Jun-07 06:32N 47°38' W 122°23'0 0.0
2016-Jun-07 05:33N 47°38' W 122°23'0 0.0
2016-Jun-07 04:34N 47°38' W 122°23'0 0.0
2016-Jun-07 03:32N 47°38' W 122°23'0 0.0
2016-Jun-07 02:33N 47°38' W 122°23'0 0.0
2016-Jun-07 01:33N 47°38' W 122°23'0 0.0
2016-Jun-07 00:33N 47°38' W 122°23'0 0.0
2016-Jun-06 23:31N 47°38' W 122°23'0 0.0
2016-Jun-06 22:31N 47°38' W 122°23'0 0.0
2016-Jun-06 21:32N 47°38' W 122°23'0 0.0
2016-Jun-06 20:33N 47°38' W 122°23'0 0.0
2016-Jun-06 19:33N 47°38' W 122°23'0 0.0
2016-Jun-06 18:31N 47°38' W 122°23'0 0.0
2016-Jun-06 17:31N 47°38' W 122°23'0 0.0
2016-Jun-06 16:33N 47°38' W 122°23'0 0.0
2016-Jun-06 15:33N 47°38' W 122°23'0 0.0
2016-Jun-06 14:33N 47°38' W 122°23'0 0.0
2016-Jun-06 13:31N 47°38' W 122°23'0 0.0
2016-Jun-06 12:31N 47°38' W 122°23'0 0.0
2016-Jun-06 11:32N 47°38' W 122°23'0 0.0
2016-Jun-06 10:33N 47°38' W 122°23'0 0.0
2016-Jun-06 09:33N 47°38' W 122°23'0 0.0
2016-Jun-06 08:32N 47°38' W 122°23'0 0.0
2016-Jun-06 07:32N 47°38' W 122°23'0 0.0
2016-Jun-06 06:32N 47°38' W 122°23'0 0.0
2016-Jun-06 05:33N 47°38' W 122°23'0 0.0
2016-Jun-06 04:34N 47°38' W 122°23'0 0.0
2016-Jun-06 03:32N 47°38' W 122°23'0 0.0
2016-Jun-06 02:32N 47°38' W 122°23'0 0.0
2016-Jun-06 01:33N 47°38' W 122°23'0 0.0
2016-Jun-06 00:33N 47°38' W 122°23'0 0.0
2016-Jun-05 23:33N 47°38' W 122°23'0 0.0
2016-Jun-05 22:32N 47°38' W 122°23'0 0.0
2016-Jun-05 21:33N 47°38' W 122°23'0 0.0
2016-Jun-05 20:33N 47°38' W 122°23'0 0.0
2016-Jun-05 19:33N 47°38' W 122°23'0 0.0
2016-Jun-05 18:32N 47°38' W 122°23'0 0.0
2016-Jun-05 17:32N 47°38' W 122°23'0 0.0
2016-Jun-05 16:33N 47°38' W 122°23'0 0.0
2016-Jun-05 15:33N 47°38' W 122°23'0 0.0
2016-Jun-05 14:33N 47°38' W 122°23'0 0.0
2016-Jun-05 13:32N 47°38' W 122°23'0 0.0
2016-Jun-05 12:32N 47°38' W 122°23'0 0.0
2016-Jun-05 11:33N 47°38' W 122°23'0 0.0
2016-Jun-05 10:33N 47°38' W 122°23'0 0.0
2016-Jun-05 09:33N 47°38' W 122°23'0 0.0
2016-Jun-05 08:32N 47°38' W 122°23'0 0.0
2016-Jun-05 07:32N 47°38' W 122°23'0 0.0
2016-Jun-05 06:33N 47°38' W 122°23'0 0.0
2016-Jun-05 05:33N 47°38' W 122°23'0 0.0
2016-Jun-05 04:31N 47°38' W 122°23'0 0.0
2016-Jun-05 03:32N 47°38' W 122°23'0 0.0
2016-Jun-05 02:33N 47°38' W 122°23'0 0.0
2016-Jun-05 01:33N 47°38' W 122°23'0 0.0
2016-Jun-05 00:33N 47°38' W 122°23'0 0.0
2016-Jun-04 23:32N 47°38' W 122°23'0 0.0
2016-Jun-04 22:32N 47°38' W 122°23'0 0.0
2016-Jun-04 21:33N 47°38' W 122°23'0 0.0
2016-Jun-04 20:34N 47°38' W 122°23'0 0.0
2016-Jun-04 19:33N 47°38' W 122°23'0 0.0
2016-Jun-04 18:31N 47°38' W 122°23'0 0.0
2016-Jun-04 17:32N 47°38' W 122°23'0 0.0
2016-Jun-04 16:32N 47°38' W 122°23'0 0.0
2016-Jun-04 15:33N 47°38' W 122°23'0 0.0
2016-Jun-04 14:33N 47°38' W 122°23'0 0.0
2016-Jun-04 13:32N 47°38' W 122°23'0 0.0
2016-Jun-04 12:32N 47°38' W 122°23'0 0.0
2016-Jun-04 11:33N 47°38' W 122°23'0 0.0
2016-Jun-04 10:33N 47°38' W 122°23'0 0.0
2016-Jun-04 09:34N 47°38' W 122°23'0 0.0
2016-Jun-04 08:31N 47°38' W 122°23'0 0.0
2016-Jun-04 07:32N 47°38' W 122°23'0 0.0
2016-Jun-04 06:33N 47°38' W 122°23'0 0.0
2016-Jun-04 05:33N 47°38' W 122°23'0 0.0
2016-Jun-04 04:32N 47°38' W 122°23'0 0.0
2016-Jun-04 03:31N 47°38' W 122°23'0 0.0
2016-Jun-04 02:33N 47°38' W 122°23'0 0.0
2016-Jun-04 01:33N 47°38' W 122°23'0 0.0
2016-Jun-04 00:33N 47°38' W 122°23'0 0.0
2016-Jun-03 23:32N 47°38' W 122°23'0 0.0
2016-Jun-03 22:32N 47°38' W 122°23'0 0.0
2016-Jun-03 21:33N 47°38' W 122°23'0 0.0
2016-Jun-03 20:33N 47°38' W 122°23'0 0.0
2016-Jun-03 19:33N 47°38' W 122°23'0 0.0
2016-Jun-03 18:32N 47°38' W 122°23'0 0.0
2016-Jun-03 17:32N 47°38' W 122°23'0 0.0
2016-Jun-03 16:33N 47°38' W 122°23'0 0.0
2016-Jun-03 15:33N 47°38' W 122°23'0 0.0
2016-Jun-03 14:31N 47°38' W 122°23'0 0.0
2016-Jun-03 13:32N 47°38' W 122°23'0 0.0
2016-Jun-03 12:32N 47°38' W 122°23'0 0.0
2016-Jun-03 11:33N 47°38' W 122°23'0 0.0
2016-Jun-03 10:33N 47°38' W 122°23'0 0.0
2016-Jun-03 09:31N 47°38' W 122°23'0 0.0
2016-Jun-03 08:32N 47°38' W 122°23'0 0.0
2016-Jun-03 07:33N 47°38' W 122°23'0 0.0
2016-Jun-03 06:33N 47°38' W 122°23'0 0.0
2016-Jun-03 05:33N 47°38' W 122°23'0 0.0
2016-Jun-03 04:32N 47°38' W 122°23'0 0.0
2016-Jun-03 03:32N 47°38' W 122°23'0 0.0
2016-Jun-03 02:33N 47°38' W 122°23'0 0.0
2016-Jun-03 01:33N 47°38' W 122°23'0 0.0
2016-Jun-03 00:31N 47°38' W 122°23'0 0.0
2016-Jun-02 23:32N 47°38' W 122°23'0 0.0
2016-Jun-02 22:33N 47°38' W 122°23'0 0.0
2016-Jun-02 21:33N 47°38' W 122°23'0 0.0
2016-Jun-02 20:33N 47°38' W 122°23'0 0.0
2016-Jun-02 19:32N 47°38' W 122°23'0 0.0
2016-Jun-02 18:32N 47°38' W 122°23'0 0.0
2016-Jun-02 17:33N 47°38' W 122°23'0 0.0
2016-Jun-02 16:33N 47°38' W 122°23'0 0.0
2016-Jun-02 15:33N 47°38' W 122°23'0 0.0
2016-Jun-02 14:32N 47°38' W 122°23'0 0.0
2016-Jun-02 13:32N 47°38' W 122°23'0 0.0
2016-Jun-02 12:33N 47°38' W 122°23'0 0.0
2016-Jun-02 11:33N 47°38' W 122°23'0 0.0
2016-Jun-02 10:31N 47°38' W 122°23'0 0.0
2016-Jun-02 09:32N 47°38' W 122°23'0 0.0
2016-Jun-02 08:32N 47°38' W 122°23'0 0.0
2016-Jun-02 07:33N 47°38' W 122°23'0 0.0
2016-Jun-02 06:33N 47°38' W 122°23'0 0.0
2016-Jun-02 05:31N 47°38' W 122°23'0 0.0
2016-Jun-02 04:32N 47°38' W 122°23'0 0.0
2016-Jun-02 03:33N 47°38' W 122°23'0 0.0
2016-Jun-02 02:33N 47°38' W 122°23'0 0.0
2016-Jun-02 01:33N 47°38' W 122°23'0 0.0
2016-Jun-02 00:31N 47°38' W 122°23'0 0.0
2016-Jun-01 23:32N 47°38' W 122°23'0 0.0
2016-Jun-01 22:32N 47°38' W 122°23'0 0.0
2016-Jun-01 21:33N 47°38' W 122°23'0 0.0
2016-Jun-01 20:33N 47°38' W 122°23'0 0.0
2016-Jun-01 19:32N 47°38' W 122°23'0 0.0
2016-Jun-01 18:32N 47°38' W 122°23'0 0.0
2016-Jun-01 17:33N 47°38' W 122°23'0 0.0
2016-Jun-01 16:33N 47°38' W 122°23'0 0.0
2016-Jun-01 15:32N 47°38' W 122°23'0 0.0
2016-Jun-01 14:32N 47°38' W 122°23'0 0.0
2016-Jun-01 13:33N 47°38' W 122°23'0 0.0
2016-Jun-01 12:33N 47°38' W 122°23'0 0.0
2016-Jun-01 11:33N 47°38' W 122°23'0 0.0
2016-Jun-01 10:32N 47°38' W 122°23'0 0.0
2016-Jun-01 09:32N 47°38' W 122°23'0 0.0
2016-Jun-01 08:33N 47°38' W 122°23'0 0.0
2016-Jun-01 07:33N 47°38' W 122°23'0 0.0
2016-Jun-01 06:33N 47°38' W 122°23'0 0.0
2016-Jun-01 05:31N 47°38' W 122°23'0 0.0
2016-Jun-01 04:32N 47°38' W 122°23'0 0.0
2016-Jun-01 03:32N 47°38' W 122°23'0 0.0
2016-Jun-01 02:33N 47°38' W 122°23'0 0.0
2016-Jun-01 01:33N 47°38' W 122°23'0 0.0
2016-Jun-01 00:32N 47°38' W 122°23'0 0.0
2016-May-31 23:32N 47°38' W 122°23'0 0.0
2016-May-31 22:33N 47°38' W 122°23'0 0.0
2016-May-31 21:33N 47°38' W 122°23'0 0.0
2016-May-31 20:34N 47°38' W 122°23'0 0.0
2016-May-31 19:32N 47°38' W 122°23'0 0.0
2016-May-31 18:32N 47°38' W 122°23'0 0.0
2016-May-31 17:33N 47°38' W 122°23'0 0.0
2016-May-31 16:33N 47°38' W 122°23'0 0.0
2016-May-31 15:32N 47°38' W 122°23'0 0.0
2016-May-31 14:32N 47°38' W 122°23'0 0.0
2016-May-31 13:33N 47°38' W 122°23'0 0.0
2016-May-31 12:33N 47°38' W 122°23'0 0.0
2016-May-31 11:33N 47°38' W 122°23'0 0.0
2016-May-31 10:32N 47°38' W 122°23'0 0.0
2016-May-31 09:32N 47°38' W 122°23'0 0.0
2016-May-31 08:33N 47°38' W 122°23'0 0.0
2016-May-31 07:33N 47°38' W 122°23'0 0.0
2016-May-31 06:33N 47°38' W 122°23'0 0.0
2016-May-31 04:32N 47°38' W 122°23'0 0.0
2016-May-31 03:33N 47°38' W 122°23'0 0.0
2016-May-31 02:33N 47°38' W 122°23'0 0.0
2016-May-31 01:32N 47°38' W 122°23'0 0.0
2016-May-31 00:32N 47°38' W 122°23'0 0.0
2016-May-30 23:33N 47°38' W 122°23'  
Track history (hours):
 
Tides and Currents Weather Stations Pressure Air Temp Water Temp Dewpoint Dewpoint Depression Visibility Wind Speed Wind Dir Waves Ship Positions

R. M. Thorstenson

Owner: Icicle Vessel Holding, Inc., Seattle, WA. More information available from US FCC via Universal Licensing System and Coast Guard Vessel Documentation Center.

Last reported at 2016-Jun-09 23:06 UTC. Time now 2016-Jul-30 05:22 UTC.
Position N 51°25' W 128°02'.
Warning: this ship's position is 50 days out of date.

Type: Fishing. MMSI: 366577000.

Date/timePositionNaut miles runAvg speedWind from/ knotsBaromVisibWave heightAir tempDewpointWater temp
2016-Jun-09 23:06N 51°25' W 128°02'5 9.2
2016-Jun-09 22:33N 51°21' W 127°57'1010.1
2016-Jun-09 21:33N 51°11' W 127°50'1110.4
2016-Jun-09 20:27N 51°03' W 127°39'1011.1
2016-Jun-09 19:34N 50°56' W 127°27'1111.3
2016-Jun-09 18:34N 50°50' W 127°12'1211.8
2016-Jun-09 17:33N 50°43' W 126°57'6310.4
2016-Jun-09 11:33N 50°20' W 125°25'1111.1
2016-Jun-09 10:34N 50°09' W 125°21'1211.5
2016-Jun-09 09:33N 49°59' W 125°12'4 4.5
2016-Jun-09 08:33N 49°56' W 125°08'4 3.6
2016-Jun-09 07:33N 49°53' W 125°05'2 2.0
2016-Jun-09 06:33N 49°54' W 125°05'3 2.9
2016-Jun-09 05:33N 49°52' W 125°02'1110.6
2016-Jun-09 04:33N 50°00' W 125°13'8 7.8
2016-Jun-09 03:33N 49°55' W 125°04'1010.4
2016-Jun-09 02:33N 49°49' W 124°51'1111.1
2016-Jun-09 01:33N 49°42' W 124°38'1110.7
2016-Jun-09 00:33N 49°35' W 124°25'1111.1
2016-Jun-08 23:33N 49°30' W 124°10'1511.2
2016-Jun-08 22:11N 49°20' W 123°52'711.1
2016-Jun-08 21:33N 49°16' W 123°43'1010.4
2016-Jun-08 20:33N 49°09' W 123°31'1110.7
2016-Jun-08 19:33N 49°02' W 123°18'1010.0
2016-Jun-08 18:33N 48°56' W 123°06'10 9.6
2016-Jun-08 17:33N 48°50' W 122°55'9 9.0
2016-Jun-08 16:33N 48°44' W 122°45'9 9.1
2016-Jun-08 15:33N 48°35' W 122°45'1010.1
2016-Jun-08 14:33N 48°24' W 122°44'1110.5
2016-Jun-08 13:31N 48°14' W 122°48'9 8.8
2016-Jun-08 12:30N 48°07' W 122°39'1010.4
2016-Jun-08 11:33N 47°58' W 122°34'1010.4
2016-Jun-08 10:33N 47°49' W 122°27'1010.5
2016-Jun-08 09:33N 47°38' W 122°27'2 2.2
2016-Jun-08 08:32N 47°37' W 122°24'0 0.0
2016-Jun-08 07:33N 47°37' W 122°24'0 0.1
2016-Jun-08 06:30N 47°37' W 122°24'0 0.1
2016-Jun-08 05:31N 47°37' W 122°24'0 0.1
2016-Jun-08 04:31N 47°37' W 122°24'2 1.8
2016-Jun-08 03:33N 47°36' W 122°25'2 2.3
2016-Jun-08 02:33N 47°38' W 122°23'0 0.0
2016-Jun-08 01:33N 47°38' W 122°23'0 0.0
2016-Jun-08 00:33N 47°38' W 122°23'0 0.0
2016-Jun-07 23:31N 47°38' W 122°23'0 0.0
2016-Jun-07 22:31N 47°38' W 122°23'0 0.0
2016-Jun-07 21:32N 47°38' W 122°23'0 0.0
2016-Jun-07 20:33N 47°38' W 122°23'0 0.0
2016-Jun-07 19:33N 47°38' W 122°23'0 0.0
2016-Jun-07 18:31N 47°38' W 122°23'0 0.0
2016-Jun-07 17:32N 47°38' W 122°23'0 0.0
2016-Jun-07 16:33N 47°38' W 122°23'0 0.0
2016-Jun-07 15:33N 47°38' W 122°23'0 0.0
2016-Jun-07 14:33N 47°38' W 122°23'0 0.0
2016-Jun-07 13:31N 47°38' W 122°23'0 0.0
2016-Jun-07 12:32N 47°38' W 122°23'0 0.0
2016-Jun-07 11:33N 47°38' W 122°23'0 0.0
2016-Jun-07 10:33N 47°38' W 122°23'0 0.0
2016-Jun-07 09:33N 47°38' W 122°23'0 0.0
2016-Jun-07 08:31N 47°38' W 122°23'0 0.0
2016-Jun-07 07:32N 47°38' W 122°23'0 0.0
2016-Jun-07 06:32N 47°38' W 122°23'0 0.0
2016-Jun-07 05:33N 47°38' W 122°23'0 0.0
2016-Jun-07 04:34N 47°38' W 122°23'0 0.0
2016-Jun-07 03:32N 47°38' W 122°23'0 0.0
2016-Jun-07 02:33N 47°38' W 122°23'0 0.0
2016-Jun-07 01:33N 47°38' W 122°23'0 0.0
2016-Jun-07 00:33N 47°38' W 122°23'0 0.0
2016-Jun-06 23:31N 47°38' W 122°23'0 0.0
2016-Jun-06 22:31N 47°38' W 122°23'0 0.0
2016-Jun-06 21:32N 47°38' W 122°23'0 0.0
2016-Jun-06 20:33N 47°38' W 122°23'0 0.0
2016-Jun-06 19:33N 47°38' W 122°23'0 0.0
2016-Jun-06 18:31N 47°38' W 122°23'0 0.0
2016-Jun-06 17:31N 47°38' W 122°23'0 0.0
2016-Jun-06 16:33N 47°38' W 122°23'0 0.0
2016-Jun-06 15:33N 47°38' W 122°23'0 0.0
2016-Jun-06 14:33N 47°38' W 122°23'0 0.0
2016-Jun-06 13:31N 47°38' W 122°23'0 0.0
2016-Jun-06 12:31N 47°38' W 122°23'0 0.0
2016-Jun-06 11:32N 47°38' W 122°23'0 0.0
2016-Jun-06 10:33N 47°38' W 122°23'0 0.0
2016-Jun-06 09:33N 47°38' W 122°23'0 0.0
2016-Jun-06 08:32N 47°38' W 122°23'0 0.0
2016-Jun-06 07:32N 47°38' W 122°23'0 0.0
2016-Jun-06 06:32N 47°38' W 122°23'0 0.0
2016-Jun-06 05:33N 47°38' W 122°23'0 0.0
2016-Jun-06 04:34N 47°38' W 122°23'0 0.0
2016-Jun-06 03:32N 47°38' W 122°23'0 0.0
2016-Jun-06 02:32N 47°38' W 122°23'0 0.0
2016-Jun-06 01:33N 47°38' W 122°23'0 0.0
2016-Jun-06 00:33N 47°38' W 122°23'0 0.0
2016-Jun-05 23:33N 47°38' W 122°23'0 0.0
2016-Jun-05 22:32N 47°38' W 122°23'0 0.0
2016-Jun-05 21:33N 47°38' W 122°23'0 0.0
2016-Jun-05 20:33N 47°38' W 122°23'0 0.0
2016-Jun-05 19:33N 47°38' W 122°23'0 0.0
2016-Jun-05 18:32N 47°38' W 122°23'0 0.0
2016-Jun-05 17:32N 47°38' W 122°23'0 0.0
2016-Jun-05 16:33N 47°38' W 122°23'0 0.0
2016-Jun-05 15:33N 47°38' W 122°23'0 0.0
2016-Jun-05 14:33N 47°38' W 122°23'0 0.0
2016-Jun-05 13:32N 47°38' W 122°23'0 0.0
2016-Jun-05 12:32N 47°38' W 122°23'0 0.0
2016-Jun-05 11:33N 47°38' W 122°23'0 0.0
2016-Jun-05 10:33N 47°38' W 122°23'0 0.0
2016-Jun-05 09:33N 47°38' W 122°23'0 0.0
2016-Jun-05 08:32N 47°38' W 122°23'0 0.0
2016-Jun-05 07:32N 47°38' W 122°23'0 0.0
2016-Jun-05 06:33N 47°38' W 122°23'0 0.0
2016-Jun-05 05:33N 47°38' W 122°23'0 0.0
2016-Jun-05 04:31N 47°38' W 122°23'0 0.0
2016-Jun-05 03:32N 47°38' W 122°23'0 0.0
2016-Jun-05 02:33N 47°38' W 122°23'0 0.0
2016-Jun-05 01:33N 47°38' W 122°23'0 0.0
2016-Jun-05 00:33N 47°38' W 122°23'0 0.0
2016-Jun-04 23:32N 47°38' W 122°23'0 0.0
2016-Jun-04 22:32N 47°38' W 122°23'0 0.0
2016-Jun-04 21:33N 47°38' W 122°23'0 0.0
2016-Jun-04 20:34N 47°38' W 122°23'0 0.0
2016-Jun-04 19:33N 47°38' W 122°23'0 0.0
2016-Jun-04 18:31N 47°38' W 122°23'0 0.0
2016-Jun-04 17:32N 47°38' W 122°23'0 0.0
2016-Jun-04 16:32N 47°38' W 122°23'0 0.0
2016-Jun-04 15:33N 47°38' W 122°23'0 0.0
2016-Jun-04 14:33N 47°38' W 122°23'0 0.0
2016-Jun-04 13:32N 47°38' W 122°23'0 0.0
2016-Jun-04 12:32N 47°38' W 122°23'0 0.0
2016-Jun-04 11:33N 47°38' W 122°23'0 0.0
2016-Jun-04 10:33N 47°38' W 122°23'0 0.0
2016-Jun-04 09:34N 47°38' W 122°23'0 0.0
2016-Jun-04 08:31N 47°38' W 122°23'0 0.0
2016-Jun-04 07:32N 47°38' W 122°23'0 0.0
2016-Jun-04 06:33N 47°38' W 122°23'0 0.0
2016-Jun-04 05:33N 47°38' W 122°23'0 0.0
2016-Jun-04 04:32N 47°38' W 122°23'0 0.0
2016-Jun-04 03:31N 47°38' W 122°23'0 0.0
2016-Jun-04 02:33N 47°38' W 122°23'0 0.0
2016-Jun-04 01:33N 47°38' W 122°23'0 0.0
2016-Jun-04 00:33N 47°38' W 122°23'0 0.0
2016-Jun-03 23:32N 47°38' W 122°23'0 0.0
2016-Jun-03 22:32N 47°38' W 122°23'0 0.0
2016-Jun-03 21:33N 47°38' W 122°23'0 0.0
2016-Jun-03 20:33N 47°38' W 122°23'0 0.0
2016-Jun-03 19:33N 47°38' W 122°23'0 0.0
2016-Jun-03 18:32N 47°38' W 122°23'0 0.0
2016-Jun-03 17:32N 47°38' W 122°23'0 0.0
2016-Jun-03 16:33N 47°38' W 122°23'0 0.0
2016-Jun-03 15:33N 47°38' W 122°23'0 0.0
2016-Jun-03 14:31N 47°38' W 122°23'0 0.0
2016-Jun-03 13:32N 47°38' W 122°23'0 0.0
2016-Jun-03 12:32N 47°38' W 122°23'0 0.0
2016-Jun-03 11:33N 47°38' W 122°23'0 0.0
2016-Jun-03 10:33N 47°38' W 122°23'0 0.0
2016-Jun-03 09:31N 47°38' W 122°23'0 0.0
2016-Jun-03 08:32N 47°38' W 122°23'0 0.0
2016-Jun-03 07:33N 47°38' W 122°23'0 0.0
2016-Jun-03 06:33N 47°38' W 122°23'0 0.0
2016-Jun-03 05:33N 47°38' W 122°23'0 0.0
2016-Jun-03 04:32N 47°38' W 122°23'0 0.0
2016-Jun-03 03:32N 47°38' W 122°23'0 0.0
2016-Jun-03 02:33N 47°38' W 122°23'0 0.0
2016-Jun-03 01:33N 47°38' W 122°23'0 0.0
2016-Jun-03 00:31N 47°38' W 122°23'0 0.0
2016-Jun-02 23:32N 47°38' W 122°23'0 0.0
2016-Jun-02 22:33N 47°38' W 122°23'0 0.0
2016-Jun-02 21:33N 47°38' W 122°23'0 0.0
2016-Jun-02 20:33N 47°38' W 122°23'0 0.0
2016-Jun-02 19:32N 47°38' W 122°23'0 0.0
2016-Jun-02 18:32N 47°38' W 122°23'0 0.0
2016-Jun-02 17:33N 47°38' W 122°23'0 0.0
2016-Jun-02 16:33N 47°38' W 122°23'0 0.0
2016-Jun-02 15:33N 47°38' W 122°23'0 0.0
2016-Jun-02 14:32N 47°38' W 122°23'0 0.0
2016-Jun-02 13:32N 47°38' W 122°23'0 0.0
2016-Jun-02 12:33N 47°38' W 122°23'0 0.0
2016-Jun-02 11:33N 47°38' W 122°23'0 0.0
2016-Jun-02 10:31N 47°38' W 122°23'0 0.0
2016-Jun-02 09:32N 47°38' W 122°23'0 0.0
2016-Jun-02 08:32N 47°38' W 122°23'0 0.0
2016-Jun-02 07:33N 47°38' W 122°23'0 0.0
2016-Jun-02 06:33N 47°38' W 122°23'0 0.0
2016-Jun-02 05:31N 47°38' W 122°23'0 0.0
2016-Jun-02 04:32N 47°38' W 122°23'0 0.0
2016-Jun-02 03:33N 47°38' W 122°23'0 0.0
2016-Jun-02 02:33N 47°38' W 122°23'0 0.0
2016-Jun-02 01:33N 47°38' W 122°23'0 0.0
2016-Jun-02 00:31N 47°38' W 122°23'0 0.0
2016-Jun-01 23:32N 47°38' W 122°23'0 0.0
2016-Jun-01 22:32N 47°38' W 122°23'0 0.0
2016-Jun-01 21:33N 47°38' W 122°23'0 0.0
2016-Jun-01 20:33N 47°38' W 122°23'0 0.0
2016-Jun-01 19:32N 47°38' W 122°23'0 0.0
2016-Jun-01 18:32N 47°38' W 122°23'0 0.0
2016-Jun-01 17:33N 47°38' W 122°23'0 0.0
2016-Jun-01 16:33N 47°38' W 122°23'0 0.0
2016-Jun-01 15:32N 47°38' W 122°23'0 0.0
2016-Jun-01 14:32N 47°38' W 122°23'0 0.0
2016-Jun-01 13:33N 47°38' W 122°23'0 0.0
2016-Jun-01 12:33N 47°38' W 122°23'0 0.0
2016-Jun-01 11:33N 47°38' W 122°23'0 0.0
2016-Jun-01 10:32N 47°38' W 122°23'0 0.0
2016-Jun-01 09:32N 47°38' W 122°23'0 0.0
2016-Jun-01 08:33N 47°38' W 122°23'0 0.0
2016-Jun-01 07:33N 47°38' W 122°23'0 0.0
2016-Jun-01 06:33N 47°38' W 122°23'0 0.0
2016-Jun-01 05:31N 47°38' W 122°23'0 0.0
2016-Jun-01 04:32N 47°38' W 122°23'0 0.0
2016-Jun-01 03:32N 47°38' W 122°23'0 0.0
2016-Jun-01 02:33N 47°38' W 122°23'0 0.0
2016-Jun-01 01:33N 47°38' W 122°23'0 0.0
2016-Jun-01 00:32N 47°38' W 122°23'0 0.0
2016-May-31 23:32N 47°38' W 122°23'0 0.0
2016-May-31 22:33N 47°38' W 122°23'0 0.0
2016-May-31 21:33N 47°38' W 122°23'0 0.0
2016-May-31 20:34N 47°38' W 122°23'0 0.0
2016-May-31 19:32N 47°38' W 122°23'0 0.0
2016-May-31 18:32N 47°38' W 122°23'0 0.0
2016-May-31 17:33N 47°38' W 122°23'0 0.0
2016-May-31 16:33N 47°38' W 122°23'0 0.0
2016-May-31 15:32N 47°38' W 122°23'0 0.0
2016-May-31 14:32N 47°38' W 122°23'0 0.0
2016-May-31 13:33N 47°38' W 122°23'0 0.0
2016-May-31 12:33N 47°38' W 122°23'0 0.0
2016-May-31 11:33N 47°38' W 122°23'0 0.0
2016-May-31 10:32N 47°38' W 122°23'0 0.0
2016-May-31 09:32N 47°38' W 122°23'0 0.0
2016-May-31 08:33N 47°38' W 122°23'0 0.0
2016-May-31 07:33N 47°38' W 122°23'0 0.0
2016-May-31 06:33N 47°38' W 122°23'0 0.0
2016-May-31 04:32N 47°38' W 122°23'0 0.0
2016-May-31 03:33N 47°38' W 122°23'0 0.0
2016-May-31 02:33N 47°38' W 122°23'0 0.0
2016-May-31 01:32N 47°38' W 122°23'0 0.0
2016-May-31 00:32N 47°38' W 122°23'0 0.0
2016-May-30 23:33N 47°38' W 122°23'  

Dump ship's entire track history